Startpagina
METAR-TAF:

METAR-TAF

Vliegvelden :

Internationale luchthaven van Nouakchott

Nouakchott, Mauritanië

breedte: 18-18-36N, lengte: 015-58-11W, hoogte: 3 m

Actueel weer

Dit bericht is 35 minuten geleden gemaakt, om 11:30 UTC
Wind 11 kt uit het noorden
Temperatuur 26°C
Vochtigheid 54%
Druk 1011 hPa
Zicht: 8000 m

METAR: GQNO 201130Z 35011KT 8000 NSC 26/16 Q1011 NOSIG

Tijdstip: 12:05 (12:05 UTC)

Verwachting

Dit bericht is 1 uur en het 5 minuten geleden gemaakt, om 11:00 UTC
Verwachting geldig van 20 om 12 UTC tot 21 om 18 UTC
Wind 14 kt uit het noordnoordwesten
Zicht: 7000 m

TAF: GQNO 201100Z 2012/2118 34014KT 7000 NSC

Waarnemingen en weersverwachtingen van meer dan 4000 vliegvelden (METAR en TAF).

De beschikbare stations zijn de gele en rode punten op de kaart.

Ga met uw muis naar het station om de naam te zien.

Klik dan om waarnemingen en weersverwachtingen te zien.

kaart wijzigen: klik op de groene knoppen met een zwart kruis om in te zoomen, op de groene knop met een streepje om uit te zoomen of op de groene pijlen voor aangrenzende kaarten.


METAR-TAF: